Time;durP1;ratioP1;P1;durP2;ratioP2;P2;SDS_P1;SDS_P2;PMS_P1;PMS_P2;Temp;Humidity;BMP_temperature;BMP_pressure;BME280_temperature;BME280_humidity;BME280_pressure;Samples;Min_cycle;Max_cycle;Signal;HPM_P1;HPM_P2
2022/04/14 00:01:44;;;;;;;21.80;20.40;;;;;;;;;;5115901;28;20426;-82
2022/04/14 00:04:11;;;;;;;21.60;20.17;;;;;;;;;;5115492;28;20411;-80
2022/04/14 00:06:39;;;;;;;21.60;19.90;;;;;;;;;;5115582;28;20750;-82
2022/04/14 00:09:07;;;;;;;26.53;20.40;;;;;;;;;;5115345;28;20480;-82
2022/04/14 00:11:35;;;;;;;21.83;20.40;;;;;;;;;;5115397;28;20433;-82
2022/04/14 00:14:02;;;;;;;21.90;20.50;;;;;;;;;;5115154;28;20844;-81
2022/04/14 00:16:29;;;;;;;22.17;20.70;;;;;;;;;;5115255;28;20462;-82
2022/04/14 00:18:57;;;;;;;21.30;20.00;;;;;;;;;;5115207;28;20415;-82
2022/04/14 00:21:24;;;;;;;21.10;19.80;;;;;;;;;;5115124;28;20412;-82
2022/04/14 00:23:51;;;;;;;20.63;19.30;;;;;;;;;;5115425;28;20455;-82
2022/04/14 00:26:20;;;;;;;20.73;19.40;;;;;;;;;;5115064;27;20407;-81
2022/04/14 00:28:48;;;;;;;21.20;19.93;;;;;;;;;;5115197;27;20427;-83
2022/04/14 00:31:15;;;;;;;20.93;19.60;;;;;;;;;;5114965;28;20967;-82
2022/04/14 00:33:42;;;;;;;21.47;19.97;;;;;;;;;;5114832;28;20418;-82
2022/04/14 00:36:10;;;;;;;20.40;19.27;;;;;;;;;;5114992;28;20444;-82
2022/04/14 00:38:38;;;;;;;20.73;19.30;;;;;;;;;;5114967;28;20407;-81
2022/04/14 00:41:06;;;;;;;22.33;20.20;;;;;;;;;;5114888;28;20472;-81
2022/04/14 00:43:35;;;;;;;21.10;19.80;;;;;;;;;;5114724;28;20429;-82
2022/04/14 00:46:03;;;;;;;20.60;19.40;;;;;;;;;;5113843;28;20429;-81
2022/04/14 00:48:32;;;;;;;20.53;19.40;;;;;;;;;;5114837;28;20951;-82
2022/04/14 00:51:00;;;;;;;20.53;19.13;;;;;;;;;;5114833;28;20468;-82
2022/04/14 00:53:27;;;;;;;21.93;20.63;;;;;;;;;;5114623;28;20475;-82
2022/04/14 00:55:55;;;;;;;21.60;20.20;;;;;;;;;;5114760;28;20455;-82
2022/04/14 00:58:22;;;;;;;21.30;20.07;;;;;;;;;;5114392;28;20433;-82
2022/04/14 01:00:52;;;;;;;21.57;20.17;;;;;;;;;;5114576;28;20418;-82
2022/04/14 01:03:20;;;;;;;22.40;20.87;;;;;;;;;;5114488;28;20436;-82
2022/04/14 01:05:47;;;;;;;20.80;19.60;;;;;;;;;;5113921;28;20429;-83
2022/04/14 01:08:16;;;;;;;20.73;19.57;;;;;;;;;;5114210;28;20440;-82
2022/04/14 01:10:47;;;;;;;21.63;20.30;;;;;;;;;;5114396;28;20867;-82
2022/04/14 01:13:14;;;;;;;22.17;20.93;;;;;;;;;;5114385;28;20418;-82
2022/04/14 01:15:41;;;;;;;21.63;20.13;;;;;;;;;;5113978;28;20511;-82
2022/04/14 01:18:10;;;;;;;21.47;20.30;;;;;;;;;;5114216;28;20415;-82
2022/04/14 01:20:38;;;;;;;21.80;20.50;;;;;;;;;;5114141;28;20432;-81
2022/04/14 01:23:06;;;;;;;20.97;19.77;;;;;;;;;;5113898;28;20466;-82
2022/04/14 01:25:35;;;;;;;20.90;19.60;;;;;;;;;;5114206;28;20425;-81
2022/04/14 01:28:03;;;;;;;19.93;18.83;;;;;;;;;;5113835;28;20490;-81
2022/04/14 01:30:31;;;;;;;20.23;19.20;;;;;;;;;;5113808;28;20513;-82
2022/04/14 01:32:58;;;;;;;20.73;19.53;;;;;;;;;;5114376;28;20408;-81
2022/04/14 01:35:26;;;;;;;20.40;19.20;;;;;;;;;;5113662;28;20419;-82
2022/04/14 01:37:53;;;;;;;20.60;19.30;;;;;;;;;;5114028;28;20437;-82
2022/04/14 01:40:21;;;;;;;19.40;18.50;;;;;;;;;;5113987;28;20507;-82
2022/04/14 01:42:50;;;;;;;19.63;18.30;;;;;;;;;;5113632;28;20412;-82
2022/04/14 01:45:17;;;;;;;20.53;19.20;;;;;;;;;;5113592;28;20872;-82
2022/04/14 01:47:45;;;;;;;20.83;19.53;;;;;;;;;;5113593;28;20408;-82
2022/04/14 01:50:14;;;;;;;20.20;18.80;;;;;;;;;;5113744;28;20516;-82
2022/04/14 01:52:42;;;;;;;19.90;18.87;;;;;;;;;;5113894;28;20426;-82
2022/04/14 01:55:09;;;;;;;19.60;18.53;;;;;;;;;;5113786;28;20423;-82
2022/04/14 01:57:37;;;;;;;19.77;18.67;;;;;;;;;;5113588;28;20427;-83
2022/04/14 02:00:07;;;;;;;19.80;18.80;;;;;;;;;;5113634;28;20433;-82
2022/04/14 02:02:34;;;;;;;19.67;18.57;;;;;;;;;;5112070;28;21036;-82
2022/04/14 02:05:02;;;;;;;19.57;18.47;;;;;;;;;;5113226;28;20436;-82
2022/04/14 02:07:29;;;;;;;20.83;19.17;;;;;;;;;;5113542;28;20403;-82
2022/04/14 02:09:57;;;;;;;19.40;18.40;;;;;;;;;;5113364;28;20492;-81
2022/04/14 02:12:25;;;;;;;20.33;19.13;;;;;;;;;;5113663;28;20429;-82
2022/04/14 02:14:52;;;;;;;19.60;18.50;;;;;;;;;;5112936;28;20973;-82
2022/04/14 02:17:21;;;;;;;19.47;18.47;;;;;;;;;;5113535;28;20411;-82
2022/04/14 02:19:49;;;;;;;21.37;20.17;;;;;;;;;;5112860;28;20903;-82
2022/04/14 02:22:16;;;;;;;19.40;18.43;;;;;;;;;;5113503;28;20411;-81
2022/04/14 02:24:44;;;;;;;20.00;18.90;;;;;;;;;;5113562;28;20445;-81
2022/04/14 02:27:11;;;;;;;20.20;19.00;;;;;;;;;;5113290;28;20469;-82
2022/04/14 02:29:38;;;;;;;20.20;19.03;;;;;;;;;;5112047;28;20468;-82
2022/04/14 02:32:06;;;;;;;20.03;18.93;;;;;;;;;;5113318;28;20444;-80
2022/04/14 02:34:35;;;;;;;19.50;18.60;;;;;;;;;;5113461;28;20418;-82
2022/04/14 02:37:03;;;;;;;20.57;19.47;;;;;;;;;;5113324;28;20534;-81
2022/04/14 02:39:31;;;;;;;19.93;18.93;;;;;;;;;;5113367;28;20509;-82
2022/04/14 02:41:58;;;;;;;20.57;19.40;;;;;;;;;;5113088;28;20510;-82
2022/04/14 02:44:25;;;;;;;20.40;19.33;;;;;;;;;;5113506;28;20433;-82
2022/04/14 02:46:53;;;;;;;21.07;19.60;;;;;;;;;;5113126;28;20825;-82
2022/04/14 02:49:21;;;;;;;20.10;19.00;;;;;;;;;;5116925;28;20854;-82
2022/04/14 02:51:49;;;;;;;21.17;20.07;;;;;;;;;;5117126;28;20981;-82
2022/04/14 02:54:17;;;;;;;21.17;19.77;;;;;;;;;;5117087;28;20415;-81
2022/04/14 02:56:44;;;;;;;20.40;19.30;;;;;;;;;;5117086;27;20909;-82
2022/04/14 02:59:11;;;;;;;20.47;19.33;;;;;;;;;;5116743;28;20787;-82
2022/04/14 03:01:39;;;;;;;20.33;19.10;;;;;;;;;;5116900;28;20437;-82
2022/04/14 03:04:06;;;;;;;20.83;19.73;;;;;;;;;;5116539;28;20820;-82
2022/04/14 03:06:34;;;;;;;21.13;19.67;;;;;;;;;;5116892;27;20448;-82
2022/04/14 03:09:02;;;;;;;20.47;19.47;;;;;;;;;;5117028;27;20549;-82
2022/04/14 03:11:30;;;;;;;20.67;19.67;;;;;;;;;;5116341;28;20478;-81
2022/04/14 03:13:57;;;;;;;20.10;19.00;;;;;;;;;;5116308;28;20419;-82
2022/04/14 03:16:25;;;;;;;21.47;20.37;;;;;;;;;;5116149;28;20476;-82
2022/04/14 03:18:52;;;;;;;21.13;19.90;;;;;;;;;;5116653;28;20415;-82
2022/04/14 03:21:20;;;;;;;21.17;20.03;;;;;;;;;;5116728;28;20407;-82
2022/04/14 03:23:47;;;;;;;19.90;18.90;;;;;;;;;;5116585;28;20443;-81
2022/04/14 03:26:16;;;;;;;20.60;19.40;;;;;;;;;;5116853;28;20433;-82
2022/04/14 03:28:43;;;;;;;21.53;20.17;;;;;;;;;;5116048;28;20493;-82
2022/04/14 03:31:11;;;;;;;20.20;19.10;;;;;;;;;;5116610;28;20992;-82
2022/04/14 03:33:38;;;;;;;20.10;19.03;;;;;;;;;;5116629;28;20479;-82
2022/04/14 03:36:06;;;;;;;22.30;20.90;;;;;;;;;;5116015;28;20468;-82
2022/04/14 03:38:34;;;;;;;22.67;21.27;;;;;;;;;;5116312;28;20441;-82
2022/04/14 03:41:04;;;;;;;22.40;21.10;;;;;;;;;;5115853;28;20445;-82
2022/04/14 03:43:33;;;;;;;23.40;21.83;;;;;;;;;;5115715;28;20915;-82
2022/04/14 03:46:00;;;;;;;23.00;21.60;;;;;;;;;;5116181;28;20411;-82
2022/04/14 03:48:27;;;;;;;22.77;21.37;;;;;;;;;;5115890;28;20824;-81
2022/04/14 03:50:55;;;;;;;22.67;21.30;;;;;;;;;;5115614;28;20479;-82
2022/04/14 03:53:23;;;;;;;21.90;20.70;;;;;;;;;;5115916;28;20414;-82
2022/04/14 03:55:51;;;;;;;25.50;23.80;;;;;;;;;;5115729;28;20436;-82
2022/04/14 03:58:18;;;;;;;25.80;24.20;;;;;;;;;;5115403;27;20408;-82
2022/04/14 04:00:47;;;;;;;24.47;22.73;;;;;;;;;;5115921;28;20441;-81
2022/04/14 04:03:14;;;;;;;23.70;22.20;;;;;;;;;;5115480;28;20877;-82
2022/04/14 04:05:42;;;;;;;22.40;21.00;;;;;;;;;;5115698;28;20448;-81
2022/04/14 04:08:09;;;;;;;21.90;20.50;;;;;;;;;;5115425;28;20908;-81
2022/04/14 04:10:37;;;;;;;22.03;20.63;;;;;;;;;;5115656;28;20455;-81
2022/04/14 04:13:04;;;;;;;23.47;21.87;;;;;;;;;;5115415;28;20445;-82
2022/04/14 04:15:32;;;;;;;23.60;22.10;;;;;;;;;;5115174;28;20455;-82
2022/04/14 04:18:00;;;;;;;23.97;22.30;;;;;;;;;;5115322;28;20436;-82
2022/04/14 04:20:28;;;;;;;23.13;21.80;;;;;;;;;;5115311;28;20447;-81
2022/04/14 04:22:55;;;;;;;24.30;22.80;;;;;;;;;;5115129;28;20436;-82
2022/04/14 04:25:23;;;;;;;23.10;21.80;;;;;;;;;;5115232;28;20507;-81
2022/04/14 04:27:50;;;;;;;23.30;21.77;;;;;;;;;;5115198;28;20419;-82
2022/04/14 04:30:17;;;;;;;24.03;22.50;;;;;;;;;;5115091;28;20468;-81
2022/04/14 04:32:45;;;;;;;23.00;21.50;;;;;;;;;;5114842;28;20411;-82
2022/04/14 04:35:14;;;;;;;23.67;22.27;;;;;;;;;;5113830;28;20498;-82
2022/04/14 04:37:42;;;;;;;22.93;21.57;;;;;;;;;;5114921;28;20440;-80
2022/04/14 04:40:10;;;;;;;23.57;21.97;;;;;;;;;;5114762;28;20440;-82
2022/04/14 04:42:37;;;;;;;24.57;22.97;;;;;;;;;;5115137;27;20444;-82
2022/04/14 04:45:05;;;;;;;24.03;22.30;;;;;;;;;;5114576;28;20418;-82
2022/04/14 04:47:32;;;;;;;23.97;22.57;;;;;;;;;;5114639;28;20468;-82
2022/04/14 04:50:00;;;;;;;22.60;21.20;;;;;;;;;;5114890;28;20436;-83
2022/04/14 04:52:29;;;;;;;24.70;22.73;;;;;;;;;;5114645;28;20445;-83
2022/04/14 04:54:56;;;;;;;24.00;22.50;;;;;;;;;;5114879;28;20444;-83
2022/04/14 04:57:23;;;;;;;23.50;21.90;;;;;;;;;;5114876;28;20433;-83
2022/04/14 04:59:51;;;;;;;22.73;21.33;;;;;;;;;;5114578;28;20429;-85
2022/04/14 05:02:18;;;;;;;21.67;20.37;;;;;;;;;;5114768;28;20435;-83
2022/04/14 05:04:45;;;;;;;23.33;21.93;;;;;;;;;;5114412;28;20415;-83
2022/04/14 05:07:12;;;;;;;24.43;22.73;;;;;;;;;;5114485;28;20837;-83
2022/04/14 05:09:41;;;;;;;24.10;22.60;;;;;;;;;;5114395;28;20411;-83
2022/04/14 05:12:09;;;;;;;24.27;22.67;;;;;;;;;;5112991;28;20491;-83
2022/04/14 05:14:36;;;;;;;24.30;22.80;;;;;;;;;;5114640;28;20437;-83
2022/04/14 05:17:04;;;;;;;25.43;23.30;;;;;;;;;;5114048;28;20480;-83
2022/04/14 05:19:31;;;;;;;23.97;22.37;;;;;;;;;;5114161;28;20428;-83
2022/04/14 05:22:01;;;;;;;23.63;22.23;;;;;;;;;;5114217;28;20447;-83
2022/04/14 05:24:29;;;;;;;24.63;23.00;;;;;;;;;;5114447;28;20416;-83
2022/04/14 05:26:58;;;;;;;24.63;23.03;;;;;;;;;;5114195;28;20436;-82
2022/04/14 05:29:25;;;;;;;24.10;22.07;;;;;;;;;;5114167;28;20905;-83
2022/04/14 05:31:52;;;;;;;23.40;21.87;;;;;;;;;;5113914;28;20472;-83
2022/04/14 05:34:20;;;;;;;25.27;23.57;;;;;;;;;;5113947;28;20440;-83
2022/04/14 05:36:47;;;;;;;24.47;22.77;;;;;;;;;;5113880;28;20476;-83
2022/04/14 05:39:14;;;;;;;25.70;23.93;;;;;;;;;;5114278;28;20444;-83
2022/04/14 05:41:41;;;;;;;24.30;22.80;;;;;;;;;;5113947;28;20411;-83
2022/04/14 05:44:10;;;;;;;23.77;22.37;;;;;;;;;;5113723;28;20414;-83
2022/04/14 05:46:38;;;;;;;24.57;22.90;;;;;;;;;;5113912;28;20435;-83
2022/04/14 05:49:05;;;;;;;24.97;23.20;;;;;;;;;;5113769;28;20433;-83
2022/04/14 05:51:32;;;;;;;24.57;22.70;;;;;;;;;;5113994;28;20488;-83
2022/04/14 05:54:00;;;;;;;25.70;24.00;;;;;;;;;;5113681;28;20440;-85
2022/04/14 05:56:27;;;;;;;27.20;25.20;;;;;;;;;;5113489;28;20896;-84
2022/04/14 05:58:54;;;;;;;26.53;24.67;;;;;;;;;;5113455;28;20657;-85
2022/04/14 06:01:25;;;;;;;26.30;24.47;;;;;;;;;;5113123;28;20449;-83
2022/04/14 06:03:52;;;;;;;26.87;24.93;;;;;;;;;;5113488;28;20415;-85
2022/04/14 06:06:19;;;;;;;25.80;24.20;;;;;;;;;;5113446;28;20904;-85
2022/04/14 06:08:47;;;;;;;27.13;25.43;;;;;;;;;;5113516;28;20912;-85
2022/04/14 06:11:14;;;;;;;27.80;26.00;;;;;;;;;;5113570;28;20479;-85
2022/04/14 06:13:42;;;;;;;27.33;25.43;;;;;;;;;;5113457;28;20415;-85
2022/04/14 06:16:09;;;;;;;29.40;27.30;;;;;;;;;;5113466;28;20567;-85
2022/04/14 06:18:38;;;;;;;28.00;26.10;;;;;;;;;;5113455;28;20529;-83
2022/04/14 06:21:05;;;;;;;29.23;27.07;;;;;;;;;;5113738;28;20497;-82
2022/04/14 06:23:33;;;;;;;28.13;26.00;;;;;;;;;;5117540;28;20441;-83
2022/04/14 06:26:00;;;;;;;27.17;24.80;;;;;;;;;;5118099;28;20905;-83
2022/04/14 06:28:27;;;;;;;29.80;27.37;;;;;;;;;;5117896;27;20505;-82
2022/04/14 06:30:56;;;;;;;30.63;28.00;;;;;;;;;;5117533;28;20472;-82
2022/04/14 06:33:25;;;;;;;31.53;29.03;;;;;;;;;;5117822;28;20419;-84
2022/04/14 06:35:54;;;;;;;31.30;28.77;;;;;;;;;;5117409;28;20813;-84
2022/04/14 06:38:24;;;;;;;30.97;28.63;;;;;;;;;;5117976;28;20447;-82
2022/04/14 06:40:51;;;;;;;33.17;30.53;;;;;;;;;;5118231;27;20448;-83
2022/04/14 06:43:19;;;;;;;33.93;31.33;;;;;;;;;;5117983;28;20926;-83
2022/04/14 06:45:46;;;;;;;34.37;31.37;;;;;;;;;;5117251;28;20407;-84
2022/04/14 06:48:14;;;;;;;35.27;32.20;;;;;;;;;;5117577;27;20463;-83
2022/04/14 06:50:41;;;;;;;34.67;31.80;;;;;;;;;;5117628;28;20488;-82
2022/04/14 06:53:10;;;;;;;33.00;30.33;;;;;;;;;;5117281;28;20991;-82
2022/04/14 06:55:38;;;;;;;38.60;35.03;;;;;;;;;;5117389;28;20794;-82
2022/04/14 06:58:06;;;;;;;35.97;32.70;;;;;;;;;;5117046;28;20500;-83
2022/04/14 07:00:34;;;;;;;32.63;29.87;;;;;;;;;;5117269;28;20411;-83
2022/04/14 07:03:01;;;;;;;34.40;31.23;;;;;;;;;;5117151;28;20407;-83
2022/04/14 07:05:28;;;;;;;34.17;31.20;;;;;;;;;;5116880;28;20914;-85
2022/04/14 07:07:56;;;;;;;33.03;30.30;;;;;;;;;;5117552;28;20477;-84
2022/04/14 07:10:27;;;;;;;32.23;29.63;;;;;;;;;;5117370;28;20791;-84
2022/04/14 07:12:55;;;;;;;33.33;30.43;;;;;;;;;;5116966;28;20494;-84
2022/04/14 07:15:23;;;;;;;32.83;30.27;;;;;;;;;;5116965;27;20529;-84
2022/04/14 07:17:50;;;;;;;33.53;30.93;;;;;;;;;;5115860;28;20517;-85
2022/04/14 07:20:17;;;;;;;31.73;29.07;;;;;;;;;;5117276;28;20471;-84
2022/04/14 07:22:45;;;;;;;32.07;29.50;;;;;;;;;;5115626;28;20975;-84
2022/04/14 07:25:13;;;;;;;32.60;30.20;;;;;;;;;;5116724;28;20527;-82
2022/04/14 07:27:42;;;;;;;31.60;29.20;;;;;;;;;;5116544;28;20403;-83
2022/04/14 07:30:10;;;;;;;31.30;28.90;;;;;;;;;;5116727;28;20906;-84
2022/04/14 07:32:38;;;;;;;30.03;27.70;;;;;;;;;;5116233;28;20455;-83
2022/04/14 07:35:06;;;;;;;31.47;29.17;;;;;;;;;;5117933;28;20856;-87
2022/04/14 07:37:36;;;;;;;32.07;29.57;;;;;;;;;;5119350;28;20965;-84
2022/04/14 07:40:03;;;;;;;33.20;30.50;;;;;;;;;;5117913;28;20411;-86
2022/04/14 07:42:33;;;;;;;33.03;30.50;;;;;;;;;;5118172;28;20407;-87
2022/04/14 07:45:02;;;;;;;33.50;30.93;;;;;;;;;;5118217;28;20415;-87
2022/04/14 07:47:30;;;;;;;36.00;33.23;;;;;;;;;;5117730;28;20885;-87
2022/04/14 07:49:57;;;;;;;34.93;31.93;;;;;;;;;;5117402;28;20447;-87
2022/04/14 07:52:24;;;;;;;35.67;32.97;;;;;;;;;;5116805;28;20492;-87
2022/04/14 07:54:52;;;;;;;36.27;33.30;;;;;;;;;;5117017;28;20750;-86
2022/04/14 07:57:19;;;;;;;35.03;32.23;;;;;;;;;;5116755;28;20451;-87
2022/04/14 07:59:47;;;;;;;36.37;33.37;;;;;;;;;;5112328;28;20444;-93
2022/04/14 08:02:18;;;;;;;35.33;32.43;;;;;;;;;;5110305;28;20433;-94
2022/04/14 08:04:45;;;;;;;37.23;33.90;;;;;;;;;;5116452;28;20463;-94
2022/04/14 08:07:13;;;;;;;40.83;37.23;;;;;;;;;;5117061;28;20416;-93
2022/04/14 08:09:41;;;;;;;42.90;38.50;;;;;;;;;;5117135;28;20799;-95
2022/04/14 08:12:14;;;;;;;43.43;39.13;;;;;;;;;;5118957;28;20988;-96
2022/04/14 08:14:41;;;;;;;42.27;38.20;;;;;;;;;;5118723;28;20441;-92
2022/04/14 08:17:09;;;;;;;47.00;42.10;;;;;;;;;;5116683;28;20473;-93
2022/04/14 08:19:40;;;;;;;47.00;42.17;;;;;;;;;;5117320;28;20427;-94
2022/04/14 08:22:07;;;;;;;47.47;42.10;;;;;;;;;;5116631;28;20426;-96
2022/04/14 08:24:36;;;;;;;53.93;46.57;;;;;;;;;;5116393;28;20904;-96
2022/04/14 08:27:03;;;;;;;50.73;45.23;;;;;;;;;;5116396;28;20406;-92
2022/04/14 08:29:30;;;;;;;52.20;45.83;;;;;;;;;;5117165;28;20423;-93
2022/04/14 08:31:58;;;;;;;53.53;47.93;;;;;;;;;;5116526;28;20484;-90
2022/04/14 08:34:26;;;;;;;52.97;47.60;;;;;;;;;;5116534;28;20808;-91
2022/04/14 08:36:55;;;;;;;54.67;48.67;;;;;;;;;;5116307;28;20494;-91
2022/04/14 08:39:22;;;;;;;54.03;48.50;;;;;;;;;;5116459;28;20456;-91
2022/04/14 08:41:54;;;;;;;53.73;48.13;;;;;;;;;;5115970;28;20411;-92
2022/04/14 08:44:25;;;;;;;53.60;48.30;;;;;;;;;;5117611;28;20892;-94
2022/04/14 08:46:53;;;;;;;54.07;48.43;;;;;;;;;;5115957;28;20987;-92
2022/04/14 08:49:22;;;;;;;49.60;44.53;;;;;;;;;;5117215;28;20427;-93
2022/04/14 08:51:50;;;;;;;51.37;45.80;;;;;;;;;;5116130;28;20472;-92
2022/04/14 08:54:21;;;;;;;51.97;45.80;;;;;;;;;;5116383;28;20453;-93
2022/04/14 08:56:48;;;;;;;53.50;47.87;;;;;;;;;;5116427;28;20396;-96
2022/04/14 08:59:18;;;;;;;53.40;47.03;;;;;;;;;;5116887;28;20403;-95
2022/04/14 09:01:46;;;;;;;56.30;50.10;;;;;;;;;;5115927;28;20391;-96
2022/04/14 09:04:13;;;;;;;57.23;48.73;;;;;;;;;;5121251;28;20419;-96
2022/04/14 09:06:41;;;;;;;55.80;49.57;;;;;;;;;;5119126;28;20447;-96
2022/04/14 09:09:08;;;;;;;58.17;51.93;;;;;;;;;;5116701;28;20432;-96
2022/04/14 09:11:38;;;;;;;56.70;50.60;;;;;;;;;;5115902;28;20486;-94
2022/04/14 09:14:06;;;;;;;53.03;47.40;;;;;;;;;;5116520;28;20885;-96
2022/04/14 09:16:34;;;;;;;54.57;47.23;;;;;;;;;;5116995;28;20494;-96
2022/04/14 09:19:02;;;;;;;54.63;48.93;;;;;;;;;;5116664;28;20437;-88
2022/04/14 09:21:29;;;;;;;56.83;50.83;;;;;;;;;;5115203;28;20411;-95
2022/04/14 09:23:57;;;;;;;51.20;45.13;;;;;;;;;;5115188;28;20456;-94
2022/04/14 09:26:24;;;;;;;50.70;45.40;;;;;;;;;;5115595;28;20416;-95
2022/04/14 09:29:07;;;;;;;55.07;49.07;;;;;;;;;;5115443;28;20444;-94
2022/04/14 09:31:49;;;;;;;54.00;48.30;;;;;;;;;;5114870;28;20408;-94
2022/04/14 09:34:19;;;;;;;51.77;46.60;;;;;;;;;;5113513;28;20866;-95
2022/04/14 09:37:01;;;;;;;51.77;46.20;;;;;;;;;;5114562;28;20961;-94
2022/04/14 09:39:29;;;;;;;47.53;42.53;;;;;;;;;;5114942;28;20452;-94
2022/04/14 09:41:56;;;;;;;53.90;47.83;;;;;;;;;;5115079;28;20433;-94
2022/04/14 09:44:24;;;;;;;50.40;45.40;;;;;;;;;;5115371;28;20497;-95
2022/04/14 09:46:52;;;;;;;46.40;41.53;;;;;;;;;;5114045;28;20444;-94
2022/04/14 09:49:21;;;;;;;48.10;43.17;;;;;;;;;;5115133;28;20473;-94
2022/04/14 09:51:50;;;;;;;49.40;44.50;;;;;;;;;;5115040;28;20411;-94
2022/04/14 09:54:18;;;;;;;49.83;44.80;;;;;;;;;;5115875;28;20486;-94
2022/04/14 09:56:47;;;;;;;42.43;38.23;;;;;;;;;;5116348;28;20436;-92
2022/04/14 09:59:15;;;;;;;39.43;35.20;;;;;;;;;;5118007;28;20845;-88
2022/04/14 10:01:43;;;;;;;46.43;41.90;;;;;;;;;;5113478;28;20415;-88
2022/04/14 10:04:29;;;;;;;42.50;37.03;;;;;;;;;;5114287;28;20935;-89
2022/04/14 10:07:02;;;;;;;45.70;40.63;;;;;;;;;;5114512;28;20774;-86
2022/04/14 10:09:30;;;;;;;42.27;37.70;;;;;;;;;;5114722;28;20476;-92
2022/04/14 10:11:58;;;;;;;42.83;38.23;;;;;;;;;;5117793;28;20454;-92
2022/04/14 10:14:26;;;;;;;44.83;40.10;;;;;;;;;;5114390;28;20891;-92
2022/04/14 10:16:53;;;;;;;45.03;40.70;;;;;;;;;;5113275;28;20483;-93
2022/04/14 10:19:24;;;;;;;42.17;38.07;;;;;;;;;;5113757;28;20440;-93
2022/04/14 10:21:52;;;;;;;42.90;38.63;;;;;;;;;;5116678;28;20407;-95
2022/04/14 10:24:23;;;;;;;41.60;37.43;;;;;;;;;;5115147;28;20403;-94
2022/04/14 10:26:51;;;;;;;42.60;38.50;;;;;;;;;;5115221;28;20436;-92
2022/04/14 10:29:19;;;;;;;45.77;41.07;;;;;;;;;;5114451;28;20910;-93
2022/04/14 10:31:49;;;;;;;35.53;31.93;;;;;;;;;;5114434;28;20440;-92
2022/04/14 10:34:17;;;;;;;39.43;35.87;;;;;;;;;;5115028;28;20486;-92
2022/04/14 10:36:47;;;;;;;39.80;36.10;;;;;;;;;;5113853;28;20407;-92
2022/04/14 10:39:16;;;;;;;43.37;39.10;;;;;;;;;;5115290;28;20415;-90
2022/04/14 10:41:46;;;;;;;39.57;36.17;;;;;;;;;;5115280;28;20407;-90
2022/04/14 10:44:14;;;;;;;37.43;34.33;;;;;;;;;;5114988;28;20395;-91
2022/04/14 10:46:47;;;;;;;42.93;38.67;;;;;;;;;;5114925;28;20478;-90
2022/04/14 10:49:15;;;;;;;40.90;37.20;;;;;;;;;;5114104;28;20746;-89
2022/04/14 10:51:43;;;;;;;40.77;36.73;;;;;;;;;;5114487;28;20827;-88
2022/04/14 10:54:12;;;;;;;42.73;38.77;;;;;;;;;;5112783;28;20865;-88
2022/04/14 10:56:44;;;;;;;37.20;33.73;;;;;;;;;;5114149;28;20555;-88
2022/04/14 10:59:12;;;;;;;35.10;32.10;;;;;;;;;;5113923;28;20905;-89
2022/04/14 11:02:06;;;;;;;36.43;33.17;;;;;;;;;;5114123;28;20460;-88
2022/04/14 11:04:34;;;;;;;36.37;33.37;;;;;;;;;;5113968;28;20471;-84
2022/04/14 11:07:02;;;;;;;37.93;34.53;;;;;;;;;;5114387;28;20436;-90
2022/04/14 11:09:48;;;;;;;32.83;30.20;;;;;;;;;;5116878;28;20448;-90
2022/04/14 11:12:20;;;;;;;35.80;32.73;;;;;;;;;;5117919;28;20454;-90
2022/04/14 11:14:49;;;;;;;32.93;29.93;;;;;;;;;;5117623;28;20904;-90
2022/04/14 11:17:31;;;;;;;31.17;28.30;;;;;;;;;;5117921;28;20460;-89
2022/04/14 11:20:13;;;;;;;35.33;32.23;;;;;;;;;;5105283;28;20423;-88
2022/04/14 11:22:55;;;;;;;33.93;31.20;;;;;;;;;;5117615;28;20400;-89
2022/04/14 11:25:42;;;;;;;35.47;32.67;;;;;;;;;;5116127;28;20423;-90
2022/04/14 11:28:19;;;;;;;30.70;28.20;;;;;;;;;;5117699;28;20750;-89
2022/04/14 11:30:46;;;;;;;33.97;31.27;;;;;;;;;;5117242;28;20439;-90
2022/04/14 11:33:14;;;;;;;31.60;29.10;;;;;;;;;;5116622;28;20511;-91
2022/04/14 11:35:46;;;;;;;32.27;29.70;;;;;;;;;;5117644;28;20522;-91
2022/04/14 11:38:28;;;;;;;30.37;27.87;;;;;;;;;;5110111;28;20540;-85
2022/04/14 11:40:56;;;;;;;30.60;28.27;;;;;;;;;;5101123;28;20449;-84
2022/04/14 11:43:26;;;;;;;32.97;30.30;;;;;;;;;;5094671;28;20482;-85
2022/04/14 11:45:54;;;;;;;31.97;29.37;;;;;;;;;;5096975;28;20417;-90
2022/04/14 11:48:22;;;;;;;32.50;29.80;;;;;;;;;;5095695;28;20438;-90
2022/04/14 11:50:56;;;;;;;31.13;28.47;;;;;;;;;;5097637;28;20412;-90
2022/04/14 11:53:30;;;;;;;32.83;29.73;;;;;;;;;;5097201;28;21037;-90
2022/04/14 11:55:57;;;;;;;29.80;27.40;;;;;;;;;;5096847;28;20439;-90
2022/04/14 11:58:26;;;;;;;29.67;27.50;;;;;;;;;;5096172;28;20905;-91
2022/04/14 12:00:54;;;;;;;31.00;28.30;;;;;;;;;;5096381;28;20444;-91
2022/04/14 12:03:31;;;;;;;29.43;27.10;;;;;;;;;;5096739;28;20413;-91
2022/04/14 12:06:02;;;;;;;31.40;28.80;;;;;;;;;;5096283;28;20541;-90
2022/04/14 12:08:30;;;;;;;29.47;27.20;;;;;;;;;;5107071;28;20457;-96
2022/04/14 12:10:57;;;;;;;29.67;27.47;;;;;;;;;;5116907;28;20431;-95
2022/04/14 12:13:24;;;;;;;32.03;29.50;;;;;;;;;;5116716;27;20565;-92
2022/04/14 12:16:03;;;;;;;31.70;29.13;;;;;;;;;;5116348;28;20459;-88
2022/04/14 12:18:30;;;;;;;30.60;28.10;;;;;;;;;;5116988;28;20897;-90
2022/04/14 12:20:58;;;;;;;32.77;30.17;;;;;;;;;;5116286;28;20400;-91
2022/04/14 12:23:25;;;;;;;35.10;31.80;;;;;;;;;;5117117;27;20772;-92
2022/04/14 12:25:54;;;;;;;34.77;31.80;;;;;;;;;;5115314;28;20412;-91
2022/04/14 12:28:21;;;;;;;34.37;31.40;;;;;;;;;;5116720;28;20435;-91
2022/04/14 12:30:49;;;;;;;35.13;32.23;;;;;;;;;;5116771;28;20486;-94
2022/04/14 12:33:25;;;;;;;36.10;32.93;;;;;;;;;;5115341;28;20488;-95
2022/04/14 12:35:53;;;;;;;32.60;30.10;;;;;;;;;;5116265;28;20415;-94
2022/04/14 12:38:24;;;;;;;31.90;29.40;;;;;;;;;;5116430;28;20455;-94
2022/04/14 12:40:55;;;;;;;30.83;28.33;;;;;;;;;;5116325;28;20486;-94
2022/04/14 12:43:23;;;;;;;30.07;27.60;;;;;;;;;;5116130;28;20411;-94
2022/04/14 12:45:51;;;;;;;30.23;28.03;;;;;;;;;;5116026;28;20442;-94
2022/04/14 12:48:30;;;;;;;31.03;28.63;;;;;;;;;;5115900;28;20437;-95
2022/04/14 12:50:58;;;;;;;31.43;29.13;;;;;;;;;;5114648;28;20431;-94
2022/04/14 12:53:26;;;;;;;31.37;29.03;;;;;;;;;;5116507;28;20488;-94
2022/04/14 12:55:53;;;;;;;31.87;29.27;;;;;;;;;;5118134;28;20506;-95
2022/04/14 12:58:21;;;;;;;32.87;30.27;;;;;;;;;;5120634;28;20418;-95
2022/04/14 13:00:48;;;;;;;32.77;30.27;;;;;;;;;;5116812;28;20432;-94
2022/04/14 13:03:16;;;;;;;32.67;30.17;;;;;;;;;;5117774;28;20841;-94
2022/04/14 13:05:45;;;;;;;34.20;31.50;;;;;;;;;;5117541;28;20829;-90
2022/04/14 13:08:13;;;;;;;32.23;29.73;;;;;;;;;;5117886;28;20445;-91
2022/04/14 13:10:41;;;;;;;33.63;31.10;;;;;;;;;;5116312;28;20429;-93
2022/04/14 13:13:09;;;;;;;32.40;29.93;;;;;;;;;;5116617;28;20485;-93
2022/04/14 13:15:38;;;;;;;32.40;29.77;;;;;;;;;;5116307;28;20454;-94
2022/04/14 13:18:06;;;;;;;33.40;30.80;;;;;;;;;;5116499;28;20487;-93
2022/04/14 13:20:34;;;;;;;33.43;30.80;;;;;;;;;;5116202;28;20429;-93
2022/04/14 13:23:03;;;;;;;33.60;30.87;;;;;;;;;;5116751;28;20424;-91
2022/04/14 13:25:30;;;;;;;32.50;30.30;;;;;;;;;;5115697;27;20538;-91
2022/04/14 13:27:58;;;;;;;31.63;29.40;;;;;;;;;;5115610;28;20418;-91
2022/04/14 13:30:25;;;;;;;32.37;29.90;;;;;;;;;;5115627;28;20427;-94
2022/04/14 13:32:53;;;;;;;31.57;29.33;;;;;;;;;;5113704;28;20427;-92
2022/04/14 13:35:20;;;;;;;31.83;29.43;;;;;;;;;;5115500;28;20463;-91
2022/04/14 13:37:47;;;;;;;30.90;28.70;;;;;;;;;;5115334;28;20457;-92
2022/04/14 13:40:16;;;;;;;29.57;27.40;;;;;;;;;;5115895;28;20433;-92
2022/04/14 13:42:44;;;;;;;31.17;28.63;;;;;;;;;;5115124;28;20758;-92
2022/04/14 13:45:12;;;;;;;31.50;29.17;;;;;;;;;;5115212;28;20416;-92
2022/04/14 13:47:39;;;;;;;31.70;29.10;;;;;;;;;;5115027;28;20810;-91
2022/04/14 13:50:08;;;;;;;32.57;29.90;;;;;;;;;;5114173;28;20528;-90
2022/04/14 13:52:35;;;;;;;32.63;30.30;;;;;;;;;;5115355;28;20904;-90
2022/04/14 13:55:02;;;;;;;33.70;31.20;;;;;;;;;;5115220;28;20450;-90
2022/04/14 13:57:31;;;;;;;31.20;28.80;;;;;;;;;;5115204;28;20427;-91
2022/04/14 13:59:59;;;;;;;31.63;29.23;;;;;;;;;;5113867;28;20416;-91
2022/04/14 14:02:26;;;;;;;31.40;28.83;;;;;;;;;;5114651;28;21033;-90
2022/04/14 14:04:54;;;;;;;33.13;30.53;;;;;;;;;;5115117;28;20415;-90
2022/04/14 14:07:21;;;;;;;30.30;28.17;;;;;;;;;;5115045;28;20452;-91
2022/04/14 14:09:49;;;;;;;30.77;28.57;;;;;;;;;;5115450;28;20795;-91
2022/04/14 14:12:16;;;;;;;32.33;29.60;;;;;;;;;;5115136;28;20448;-92
2022/04/14 14:14:45;;;;;;;32.33;29.70;;;;;;;;;;5114457;28;20491;-91
2022/04/14 14:17:12;;;;;;;32.73;30.33;;;;;;;;;;5114759;28;20472;-90
2022/04/14 14:19:40;;;;;;;31.70;29.50;;;;;;;;;;5114869;28;20431;-90
2022/04/14 14:22:07;;;;;;;33.13;30.33;;;;;;;;;;5115111;28;20498;-90
2022/04/14 14:24:36;;;;;;;32.90;30.43;;;;;;;;;;5113924;28;20441;-89